createdAt,value
2019-03-04T00:03:30.644Z,9.30
2019-03-04T00:08:36.657Z,9.30
2019-03-04T00:13:42.664Z,9.20
2019-03-04T00:18:48.924Z,9.10
2019-03-04T00:23:55.025Z,9.10
2019-03-04T00:29:01.114Z,9.30
2019-03-04T00:34:07.337Z,9.20
2019-03-04T00:39:13.516Z,9.20
2019-03-04T00:44:19.629Z,9.30
2019-03-04T00:49:25.610Z,9.10
2019-03-04T00:54:31.768Z,8.90
2019-03-04T00:59:37.944Z,9.00
2019-03-04T01:04:44.066Z,9.10
2019-03-04T01:09:50.313Z,9.10
2019-03-04T01:14:56.475Z,9.10
2019-03-04T01:20:03.553Z,8.90
2019-03-04T01:25:11.285Z,8.60
2019-03-04T01:30:19.627Z,8.90
2019-03-04T01:35:25.679Z,9.00
2019-03-04T01:40:31.659Z,8.80
2019-03-04T01:45:37.628Z,8.80
2019-03-04T01:50:43.892Z,8.60
2019-03-04T01:55:50.099Z,8.60
2019-03-04T02:00:56.224Z,8.60
2019-03-04T02:06:02.425Z,8.40
2019-03-04T02:11:08.611Z,8.30
2019-03-04T02:16:14.671Z,8.20
2019-03-04T02:21:20.784Z,8.10
2019-03-04T02:26:31.761Z,8.10
2019-03-04T02:31:37.847Z,8.10
2019-03-04T02:36:43.906Z,8.00
2019-03-04T02:41:50.032Z,7.90
2019-03-04T02:46:56.189Z,7.80
2019-03-04T02:52:02.239Z,7.60
2019-03-04T02:57:08.205Z,7.40
2019-03-04T03:02:15.308Z,7.40
2019-03-04T03:07:21.393Z,7.30
2019-03-04T03:12:27.568Z,7.30
2019-03-04T03:17:33.614Z,7.20
2019-03-04T03:22:39.698Z,7.10
2019-03-04T03:27:45.959Z,7.10
2019-03-04T03:32:52.101Z,6.90
2019-03-04T03:37:58.120Z,6.90
2019-03-04T03:43:04.214Z,6.70
2019-03-04T03:48:10.331Z,6.70
2019-03-04T03:53:16.439Z,6.60
2019-03-04T03:58:25.087Z,6.50
2019-03-04T04:03:30.230Z,6.60
2019-03-04T04:08:36.311Z,6.60
2019-03-04T04:13:42.906Z,6.60
2019-03-04T04:18:49.037Z,6.60
2019-03-04T04:23:55.055Z,6.70
2019-03-04T04:29:09.870Z,6.80
2019-03-04T04:34:15.937Z,6.70
2019-03-04T04:39:22.201Z,6.70
2019-03-04T04:44:28.276Z,6.80
2019-03-04T04:49:34.977Z,6.80
2019-03-04T04:54:41.042Z,6.80
2019-03-04T04:59:47.007Z,6.90
2019-03-04T05:04:53.076Z,7.10
2019-03-04T05:09:59.267Z,7.20
2019-03-04T05:15:05.739Z,7.30
2019-03-04T05:20:14.082Z,7.40
2019-03-04T05:25:20.114Z,7.40
2019-03-04T05:30:26.314Z,7.40
2019-03-04T05:35:33.505Z,7.40
2019-03-04T05:40:39.513Z,7.30
2019-03-04T05:45:45.483Z,7.50
2019-03-04T05:50:51.542Z,7.60
2019-03-04T05:55:57.699Z,7.70
2019-03-04T06:01:32.376Z,7.90
2019-03-04T06:06:53.927Z,8.20
2019-03-04T06:12:00.061Z,8.40
2019-03-04T06:17:06.131Z,8.70
2019-03-04T06:22:12.426Z,9.00
2019-03-04T06:27:18.616Z,9.10
2019-03-04T06:32:24.681Z,8.90
2019-03-04T06:37:30.852Z,9.00
2019-03-04T06:42:37.024Z,8.80
2019-03-04T06:47:43.243Z,8.80
2019-03-04T06:52:49.250Z,8.90
2019-03-04T06:57:55.576Z,8.90
2019-03-04T07:03:02.660Z,9.10
2019-03-04T07:08:10.094Z,9.70
2019-03-04T07:13:16.261Z,10.20
2019-03-04T07:18:22.339Z,10.70
2019-03-04T07:23:28.516Z,10.80
2019-03-04T07:28:34.657Z,10.80
2019-03-04T07:33:40.783Z,10.90
2019-03-04T07:38:56.767Z,11.70
2019-03-04T07:44:02.774Z,12.30
2019-03-04T07:49:08.835Z,12.50
2019-03-04T07:54:14.904Z,12.70
2019-03-04T07:59:21.040Z,13.10
2019-03-04T08:04:27.267Z,13.30
2019-03-04T08:10:35.389Z,13.30
2019-03-04T08:15:46.908Z,13.30
2019-03-04T08:20:52.942Z,13.50
2019-03-04T08:25:59.017Z,13.60
2019-03-04T08:31:04.997Z,13.60
2019-03-04T08:36:11.108Z,13.50
2019-03-04T08:41:17.240Z,13.30
2019-03-04T08:46:23.424Z,13.20
2019-03-04T08:51:29.403Z,13.30
2019-03-04T08:56:35.351Z,13.80
2019-03-04T09:01:41.628Z,14.30
2019-03-04T09:06:47.768Z,14.50
2019-03-04T09:11:53.812Z,14.90
2019-03-04T09:16:59.859Z,15.60
2019-03-04T09:22:05.948Z,16.40
2019-03-04T09:27:12.029Z,18.40
2019-03-04T09:32:18.204Z,20.30
2019-03-04T09:37:24.379Z,20.70
2019-03-04T09:42:31.461Z,20.60
2019-03-04T09:47:37.549Z,19.50
2019-03-04T09:52:43.609Z,17.80
2019-03-04T09:57:49.747Z,16.70
2019-03-04T10:02:55.984Z,17.40
2019-03-04T10:08:45.595Z,20.40
2019-03-04T10:14:35.316Z,23.00
2019-03-04T10:20:00.316Z,23.30
2019-03-04T10:25:47.949Z,21.40
2019-03-04T10:31:35.025Z,19.50
2019-03-04T10:37:14.353Z,18.50
2019-03-04T10:42:48.980Z,17.10
2019-03-04T10:47:54.926Z,16.70
2019-03-04T10:53:00.949Z,16.50
2019-03-04T10:58:06.985Z,16.20
2019-03-04T11:03:13.148Z,17.50
2019-03-04T11:08:19.230Z,18.10
2019-03-04T11:13:25.320Z,17.50
2019-03-04T11:18:31.390Z,17.10
2019-03-04T11:23:37.773Z,18.10
2019-03-04T11:28:43.838Z,19.00
2019-03-04T11:33:49.973Z,20.20
2019-03-04T11:39:02.207Z,20.50
2019-03-04T11:44:09.948Z,21.00
2019-03-04T11:49:15.921Z,20.70
2019-03-04T11:54:21.919Z,19.90
2019-03-04T11:59:27.985Z,19.20
2019-03-04T12:04:34.047Z,18.10
2019-03-04T12:09:40.228Z,17.80
2019-03-04T12:14:46.305Z,16.90
2019-03-04T12:19:52.428Z,16.30
2019-03-04T12:24:58.443Z,16.60
2019-03-04T12:30:04.956Z,16.50
2019-03-04T12:35:12.582Z,17.10
2019-03-04T12:40:19.126Z,16.60
2019-03-04T12:45:34.051Z,16.00
2019-03-04T12:50:32.940Z,16.00
2019-03-04T12:55:39.195Z,16.00
2019-03-04T13:00:45.262Z,15.90
2019-03-04T13:05:51.354Z,16.10
2019-03-04T13:10:57.348Z,15.80
2019-03-04T13:16:04.227Z,15.70
2019-03-04T13:21:10.293Z,15.40
2019-03-04T13:26:16.394Z,15.10
2019-03-04T13:31:23.562Z,14.60
2019-03-04T13:36:29.739Z,14.30
2019-03-04T13:41:37.752Z,14.30
2019-03-04T13:46:43.917Z,13.90
2019-03-04T13:51:50.196Z,13.30
2019-03-04T13:56:56.404Z,13.00
2019-03-04T14:02:02.291Z,13.00
2019-03-04T14:07:08.336Z,13.20
2019-03-04T14:12:14.541Z,13.30
2019-03-04T14:17:20.658Z,13.20
2019-03-04T14:22:27.014Z,13.20
2019-03-04T14:27:32.952Z,13.10
2019-03-04T14:32:39.100Z,13.10
2019-03-04T14:37:45.204Z,13.10
2019-03-04T14:42:51.187Z,13.00
2019-03-04T14:47:57.147Z,13.10
2019-03-04T14:53:03.420Z,13.00
2019-03-04T14:58:09.517Z,13.00
2019-03-04T15:03:22.794Z,13.10
2019-03-04T15:08:23.259Z,13.00
2019-03-04T15:13:29.267Z,12.90
2019-03-04T15:18:35.428Z,12.70
2019-03-04T15:23:41.553Z,12.70
2019-03-04T15:28:47.617Z,12.60
2019-03-04T15:33:53.815Z,12.50
2019-03-04T15:39:00.027Z,12.50
2019-03-04T15:44:06.617Z,12.40
2019-03-04T15:49:12.836Z,12.30
2019-03-04T15:54:19.196Z,12.30
2019-03-04T15:59:25.216Z,12.20
2019-03-04T16:04:31.558Z,12.20
2019-03-04T16:09:38.130Z,12.30
2019-03-04T16:14:44.190Z,12.40
2019-03-04T16:19:50.459Z,12.20
2019-03-04T16:24:56.429Z,11.90
2019-03-04T16:30:02.686Z,11.70
2019-03-04T16:35:09.102Z,11.50
2019-03-04T16:40:16.424Z,11.40
2019-03-04T16:45:22.751Z,11.30
2019-03-04T16:50:29.060Z,11.40
2019-03-04T16:55:35.266Z,10.80
2019-03-04T17:00:41.564Z,9.90
2019-03-04T17:05:47.919Z,9.50
2019-03-04T17:10:54.071Z,9.40
2019-03-04T17:16:00.266Z,9.20
2019-03-04T17:21:06.332Z,9.20
2019-03-04T17:26:12.548Z,9.30
2019-03-04T17:31:18.537Z,9.40
2019-03-04T17:36:24.691Z,9.40
2019-03-04T17:41:30.655Z,9.30
2019-03-04T17:46:36.860Z,9.20
2019-03-04T17:51:43.000Z,9.30
2019-03-04T17:56:49.078Z,9.20
2019-03-04T18:01:55.201Z,9.20
2019-03-04T18:07:01.322Z,9.10
2019-03-04T18:12:07.452Z,9.10
2019-03-04T18:17:13.389Z,9.10
2019-03-04T18:22:19.361Z,7.90
2019-03-04T18:27:30.103Z,6.80
2019-03-04T18:33:28.893Z,6.40
2019-03-04T18:39:34.048Z,6.30
2019-03-04T18:45:01.629Z,5.90
2019-03-04T18:50:08.807Z,5.70
2019-03-04T18:55:15.272Z,5.70
2019-03-04T19:00:24.834Z,5.80
2019-03-04T19:05:32.773Z,5.70
2019-03-04T19:10:38.823Z,5.80
2019-03-04T19:15:44.841Z,5.90
2019-03-04T19:20:51.077Z,5.90
2019-03-04T19:25:57.031Z,5.90
2019-03-04T19:31:03.815Z,5.70
2019-03-04T19:36:09.855Z,5.70
2019-03-04T19:41:16.196Z,5.60
2019-03-04T19:46:22.358Z,5.60
2019-03-04T19:51:28.453Z,5.50
2019-03-04T19:56:34.640Z,5.50
2019-03-04T20:01:40.872Z,5.40
2019-03-04T20:06:47.066Z,5.40
2019-03-04T20:11:53.460Z,5.30
2019-03-04T20:16:59.620Z,5.30
2019-03-04T20:22:06.038Z,5.30
2019-03-04T20:27:12.247Z,5.30
2019-03-04T20:32:18.618Z,5.40
2019-03-04T20:37:24.840Z,5.40
2019-03-04T20:42:31.042Z,5.40
2019-03-04T20:47:38.202Z,5.40
2019-03-04T20:52:44.272Z,5.40
2019-03-04T20:57:50.421Z,5.40
2019-03-04T21:02:56.678Z,5.30
2019-03-04T21:08:03.022Z,5.30
2019-03-04T21:13:17.071Z,5.30
2019-03-04T21:18:23.375Z,5.30
2019-03-04T21:23:29.497Z,5.30
2019-03-04T21:29:07.824Z,5.20
2019-03-04T21:35:00.344Z,5.20
2019-03-04T21:40:16.069Z,5.20
2019-03-04T21:46:08.467Z,5.10
2019-03-04T21:51:39.004Z,5.10
2019-03-04T21:56:59.550Z,5.20
2019-03-04T22:02:35.765Z,5.10
2019-03-04T22:07:42.234Z,5.10
2019-03-04T22:12:48.495Z,5.10
2019-03-04T22:17:54.589Z,5.20
2019-03-04T22:23:00.812Z,5.20
2019-03-04T22:28:06.958Z,5.10
2019-03-04T22:33:13.295Z,5.10
2019-03-04T22:38:19.593Z,5.10
2019-03-04T22:43:25.778Z,5.20
2019-03-04T22:48:31.805Z,5.20
2019-03-04T22:53:38.797Z,5.10
2019-03-04T22:58:44.710Z,5.20
2019-03-04T23:03:50.972Z,5.00
2019-03-04T23:08:57.153Z,5.00
2019-03-04T23:14:16.265Z,5.00
2019-03-04T23:19:22.318Z,5.10
2019-03-04T23:24:28.486Z,5.10
2019-03-04T23:29:35.616Z,5.10
2019-03-04T23:34:41.701Z,5.10
2019-03-04T23:39:47.659Z,5.00
2019-03-04T23:44:54.557Z,5.00
2019-03-04T23:50:18.562Z,5.00
2019-03-04T23:55:24.537Z,5.00
